Time;durP1;ratioP1;P1;durP2;ratioP2;P2;SDS_P1;SDS_P2;PMS_P1;PMS_P2;Temp;Humidity;BMP_temperature;BMP_pressure;BME280_temperature;BME280_humidity;BME280_pressure;Samples;Min_cycle;Max_cycle;Signal;HPM_P1;HPM_P2
2022/10/11 00:00:18;;;;;;;8.27;1.10;;;4.90;99.90;;;;;;5084270;28;20035;-70
2022/10/11 00:02:43;;;;;;;9.77;1.20;;;4.80;99.90;;;;;;5081594;27;20050;-70
2022/10/11 00:05:09;;;;;;;10.00;1.10;;;4.80;99.90;;;;;;5094230;28;20126;-70
2022/10/11 00:07:38;;;;;;;11.17;1.00;;;4.80;99.90;;;;;;5096260;27;20046;-69
2022/10/11 00:10:05;;;;;;;13.60;1.38;;;4.70;99.90;;;;;;5102819;27;20054;-69
2022/10/11 00:12:31;;;;;;;18.25;1.30;;;4.80;99.90;;;;;;5089060;28;20046;-69
2022/10/11 00:14:57;;;;;;;9.20;1.27;;;4.70;99.90;;;;;;5083703;27;20490;-69
2022/10/11 00:17:23;;;;;;;10.17;1.33;;;4.70;99.90;;;;;;5092736;28;20332;-69
2022/10/11 00:19:48;;;;;;;7.33;1.33;;;4.80;99.90;;;;;;5094838;27;20051;-69
2022/10/11 00:22:14;;;;;;;9.90;1.30;;;4.80;99.90;;;;;;5068395;28;20048;-69
2022/10/11 00:24:40;;;;;;;7.93;1.00;;;4.80;99.90;;;;;;5078919;28;20417;-69
2022/10/11 00:27:06;;;;;;;12.43;1.70;;;4.90;99.90;;;;;;5083625;28;20036;-69
2022/10/11 00:29:31;;;;;;;10.00;0.77;;;5.00;99.90;;;;;;5082479;28;20040;-69
2022/10/11 00:31:57;;;;;;;13.93;1.23;;;5.00;99.90;;;;;;5083707;28;20047;-69
2022/10/11 00:34:23;;;;;;;11.87;1.40;;;5.10;99.90;;;;;;5095060;28;20036;-70
2022/10/11 00:36:48;;;;;;;10.20;0.97;;;5.20;99.90;;;;;;5072407;28;20066;-70
2022/10/11 00:39:14;;;;;;;15.67;1.83;;;5.30;99.90;;;;;;5073105;28;20050;-69
2022/10/11 00:41:41;;;;;;;11.03;1.70;;;5.30;99.90;;;;;;5094891;28;21085;-69
2022/10/11 00:44:19;;;;;;;9.00;1.10;;;5.30;99.90;;;;;;5092174;28;20492;-69
2022/10/11 00:47:09;;;;;;;5.70;1.00;;;5.30;99.90;;;;;;5082515;28;20047;-70
2022/10/11 00:49:45;;;;;;;12.23;1.45;;;5.30;99.90;;;;;;5093742;28;20127;-70
2022/10/11 00:52:27;;;;;;;6.28;1.00;;;5.20;99.90;;;;;;5092016;28;20040;-70
2022/10/11 00:54:54;;;;;;;5.75;1.30;;;5.20;99.90;;;;;;5091350;28;20050;-69
2022/10/11 00:57:26;;;;;;;11.40;1.05;;;5.10;99.90;;;;;;5074562;28;20196;-69
2022/10/11 00:59:53;;;;;;;7.82;1.80;;;5.10;99.90;;;;;;5091188;28;20048;-69
2022/10/11 01:02:21;;;;;;;10.45;1.13;;;5.10;99.90;;;;;;5095629;28;20418;-69
2022/10/11 01:04:48;;;;;;;15.85;1.48;;;5.10;99.90;;;;;;5093803;28;20040;-69
2022/10/11 01:07:14;;;;;;;8.50;1.17;;;5.00;99.90;;;;;;5076293;28;20038;-69
2022/10/11 01:09:40;;;;;;;12.25;1.50;;;5.00;99.90;;;;;;5082975;28;20048;-70
2022/10/11 01:12:17;;;;;;;5.93;1.07;;;4.90;99.90;;;;;;5086846;28;20051;-69
2022/10/11 01:15:01;;;;;;;8.70;1.10;;;4.90;99.90;;;;;;5098760;28;20176;-69
2022/10/11 01:17:44;;;;;;;7.15;0.95;;;4.90;99.90;;;;;;5088346;28;20472;-69
2022/10/11 01:20:24;;;;;;;6.93;1.00;;;4.80;99.90;;;;;;5101216;28;20050;-70
2022/10/11 01:22:50;;;;;;;10.90;1.83;;;4.80;99.90;;;;;;5084075;28;20113;-69
2022/10/11 01:25:38;;;;;;;6.37;1.03;;;4.80;99.90;;;;;;5093366;27;20572;-69
2022/10/11 01:28:26;;;;;;;10.45;0.88;;;4.80;99.90;;;;;;5105701;27;20043;-69
2022/10/11 01:30:57;;;;;;;8.00;1.20;;;4.80;99.90;;;;;;5091132;28;20108;-69
2022/10/11 01:33:31;;;;;;;9.30;0.98;;;4.70;99.90;;;;;;5107033;27;20071;-69
2022/10/11 01:36:13;;;;;;;9.20;1.58;;;4.70;99.90;;;;;;5106661;27;20081;-69
2022/10/11 01:38:51;;;;;;;8.25;1.58;;;4.70;99.90;;;;;;5096524;27;20049;-70
2022/10/11 01:41:30;;;;;;;7.00;1.00;;;4.70;99.90;;;;;;5077848;27;20039;-69
2022/10/11 01:44:01;;;;;;;11.68;1.33;;;4.70;99.90;;;;;;5090162;27;20039;-70
2022/10/11 01:46:31;;;;;;;11.43;1.40;;;4.70;99.90;;;;;;5077948;27;20147;-69
2022/10/11 01:48:59;;;;;;;11.27;1.63;;;4.60;99.90;;;;;;5066743;28;20067;-70
2022/10/11 01:51:36;;;;;;;7.63;1.25;;;4.60;99.90;;;;;;5098109;27;20057;-70
2022/10/11 01:54:24;;;;;;;8.02;1.73;;;4.60;99.90;;;;;;5078132;27;20043;-70
2022/10/11 01:57:01;;;;;;;11.50;1.20;;;4.60;99.90;;;;;;5089658;28;20047;-70
2022/10/11 01:59:35;;;;;;;8.55;1.00;;;4.50;99.90;;;;;;5073507;28;20384;-69
2022/10/11 02:02:26;;;;;;;10.32;1.52;;;4.50;99.90;;;;;;5090919;27;20585;-69
2022/10/11 02:05:01;;;;;;;9.30;1.60;;;4.50;99.90;;;;;;5091551;28;20065;-69
2022/10/11 02:07:39;;;;;;;8.70;1.40;;;4.50;99.90;;;;;;5081839;27;20387;-70
2022/10/11 02:10:46;;;;;;;11.15;1.02;;;4.50;99.90;;;;;;5088565;27;20482;-70
2022/10/11 02:13:16;;;;;;;7.68;0.93;;;4.60;99.90;;;;;;5078140;28;20047;-70
2022/10/11 02:15:44;;;;;;;10.98;1.88;;;4.60;99.90;;;;;;5102809;28;20052;-70
2022/10/11 02:18:22;;;;;;;12.38;1.40;;;4.60;99.90;;;;;;5090946;27;20043;-69
2022/10/11 02:20:49;;;;;;;13.43;1.23;;;4.60;99.90;;;;;;5093304;28;20051;-69
2022/10/11 02:23:30;;;;;;;8.32;1.38;;;4.60;99.90;;;;;;5092558;27;20047;-69
2022/10/11 02:25:57;;;;;;;12.07;1.00;;;4.60;99.90;;;;;;5099424;27;20742;-70
2022/10/11 02:28:29;;;;;;;9.73;0.80;;;4.60;99.90;;;;;;5075776;27;20050;-70
2022/10/11 02:30:56;;;;;;;9.88;1.33;;;4.60;99.90;;;;;;5097952;27;20035;-70
2022/10/11 02:33:29;;;;;;;11.07;1.02;;;4.60;99.90;;;;;;5079503;27;20394;-70
2022/10/11 02:36:01;;;;;;;11.70;1.23;;;4.60;99.90;;;;;;5090005;27;20604;-70
2022/10/11 02:38:36;;;;;;;7.47;1.05;;;4.60;99.90;;;;;;5073743;27;20155;-70
2022/10/11 02:41:38;;;;;;;7.45;1.73;;;4.50;99.90;;;;;;5102253;27;20039;-70
2022/10/11 02:44:34;;;;;;;10.30;0.90;;;4.40;99.90;;;;;;5081022;27;20051;-69
2022/10/11 02:47:00;;;;;;;10.95;1.73;;;4.40;99.90;;;;;;5101212;27;20593;-69
2022/10/11 02:49:28;;;;;;;11.30;1.67;;;4.40;99.90;;;;;;5083113;27;20093;-69
2022/10/11 02:51:55;;;;;;;7.70;1.73;;;4.30;99.90;;;;;;5100735;27;20047;-69
2022/10/11 02:54:22;;;;;;;8.77;1.02;;;4.30;99.90;;;;;;5096111;27;20051;-69
2022/10/11 02:56:48;;;;;;;10.63;1.10;;;4.30;99.90;;;;;;5099722;28;20071;-69
2022/10/11 02:59:14;;;;;;;5.87;0.97;;;4.30;99.90;;;;;;5054458;28;20082;-69
2022/10/11 03:01:40;;;;;;;6.23;0.80;;;4.20;99.90;;;;;;5068337;27;20487;-69
2022/10/11 03:04:05;;;;;;;10.93;1.03;;;4.20;99.90;;;;;;5091452;27;20043;-69
2022/10/11 03:06:31;;;;;;;6.60;0.80;;;4.20;99.90;;;;;;5095769;27;20039;-69
2022/10/11 03:08:57;;;;;;;10.50;1.17;;;4.20;99.90;;;;;;5086552;28;20071;-69
2022/10/11 03:11:22;;;;;;;6.90;0.70;;;4.10;99.90;;;;;;5081890;27;20443;-69
2022/10/11 03:13:48;;;;;;;10.33;0.87;;;4.10;99.90;;;;;;5092382;27;20096;-69
2022/10/11 03:16:14;;;;;;;5.77;0.90;;;4.10;99.90;;;;;;5077171;27;20045;-69
2022/10/11 03:18:39;;;;;;;7.50;1.20;;;4.10;99.90;;;;;;5080257;27;20047;-69
2022/10/11 03:21:05;;;;;;;8.70;1.30;;;4.10;99.90;;;;;;5078553;28;20079;-69
2022/10/11 03:23:31;;;;;;;9.67;0.80;;;4.10;99.90;;;;;;5076104;27;20031;-69
2022/10/11 03:25:56;;;;;;;8.30;1.00;;;4.10;99.90;;;;;;5068799;27;20587;-69
2022/10/11 03:28:22;;;;;;;8.30;1.10;;;4.10;99.90;;;;;;5098192;27;20039;-69
2022/10/11 03:30:48;;;;;;;7.57;1.53;;;4.10;99.90;;;;;;5070483;27;20035;-69
2022/10/11 03:33:16;;;;;;;6.20;0.70;;;4.10;99.90;;;;;;5103750;27;20055;-69
2022/10/11 03:35:44;;;;;;;8.10;0.80;;;4.10;99.90;;;;;;5077395;28;20045;-69
2022/10/11 03:38:15;;;;;;;5.57;1.13;;;4.10;99.90;;;;;;5094017;27;20320;-69
2022/10/11 03:40:42;;;;;;;9.75;1.13;;;4.20;99.90;;;;;;5071786;28;20078;-69
2022/10/11 03:43:08;;;;;;;8.90;1.00;;;4.30;99.90;;;;;;5098195;27;20074;-69
2022/10/11 03:45:35;;;;;;;11.10;1.50;;;4.40;99.90;;;;;;5105287;27;20116;-70
2022/10/11 03:48:01;;;;;;;10.52;1.80;;;4.50;99.90;;;;;;5094463;27;20126;-69
2022/10/11 03:50:27;;;;;;;9.90;1.33;;;4.60;99.90;;;;;;5079962;27;20867;-69
2022/10/11 03:52:53;;;;;;;11.65;1.20;;;4.70;99.90;;;;;;5094129;27;20187;-69
2022/10/11 03:55:18;;;;;;;12.33;1.70;;;4.70;99.90;;;;;;5102029;27;20371;-69
2022/10/11 03:57:44;;;;;;;7.87;1.47;;;4.90;99.90;;;;;;5094241;27;20135;-69
2022/10/11 04:00:10;;;;;;;9.90;2.57;;;5.00;99.90;;;;;;5090251;27;20567;-69
2022/10/11 04:02:36;;;;;;;10.70;1.40;;;5.10;99.90;;;;;;5089853;27;20050;-69
2022/10/11 04:05:02;;;;;;;10.57;1.10;;;5.10;99.90;;;;;;5073448;27;20275;-69
2022/10/11 04:07:28;;;;;;;10.55;1.27;;;5.20;99.90;;;;;;5100952;27;20047;-70
2022/10/11 04:09:53;;;;;;;13.80;1.50;;;5.30;99.90;;;;;;5089653;27;20043;-69
2022/10/11 04:12:19;;;;;;;11.83;1.20;;;5.40;99.90;;;;;;5095633;28;20047;-69
2022/10/11 04:14:45;;;;;;;14.10;1.13;;;5.50;99.90;;;;;;5084696;28;20313;-69
2022/10/11 04:17:10;;;;;;;10.63;2.00;;;5.60;99.90;;;;;;5085126;28;20039;-70
2022/10/11 04:19:36;;;;;;;12.40;1.70;;;5.60;99.90;;;;;;5086408;28;20058;-69
2022/10/11 04:22:05;;;;;;;9.53;1.50;;;5.60;99.90;;;;;;5065387;28;20048;-69
2022/10/11 04:24:32;;;;;;;8.20;1.45;;;5.70;99.90;;;;;;5095145;28;20039;-69
2022/10/11 04:26:58;;;;;;;11.50;1.40;;;5.70;99.90;;;;;;5095882;28;20047;-69
2022/10/11 04:29:23;;;;;;;3.53;1.23;;;5.70;99.90;;;;;;5083381;28;20483;-69
2022/10/11 04:31:50;;;;;;;10.27;0.90;;;5.70;99.90;;;;;;5090556;28;20052;-69
2022/10/11 04:34:16;;;;;;;7.78;1.00;;;5.70;99.90;;;;;;5098034;28;20048;-70
2022/10/11 04:36:41;;;;;;;7.85;0.85;;;5.60;99.90;;;;;;5081934;28;20043;-70
2022/10/11 04:39:07;;;;;;;9.23;1.50;;;5.60;99.90;;;;;;5094475;28;20435;-70
2022/10/11 04:41:33;;;;;;;8.63;0.87;;;5.50;99.90;;;;;;5086018;28;20051;-69
2022/10/11 04:44:00;;;;;;;10.45;1.52;;;5.50;99.90;;;;;;5104101;28;20403;-69
2022/10/11 04:46:26;;;;;;;6.85;1.35;;;5.40;99.90;;;;;;5104617;28;20035;-69
2022/10/11 04:48:52;;;;;;;4.50;0.80;;;5.30;99.90;;;;;;5103484;28;20043;-70
2022/10/11 04:51:18;;;;;;;8.87;1.30;;;5.30;99.90;;;;;;5081248;28;20046;-70
2022/10/11 04:53:44;;;;;;;8.75;1.33;;;5.20;99.90;;;;;;5083005;28;20044;-70
2022/10/11 04:56:13;;;;;;;7.60;1.20;;;5.20;99.90;;;;;;5067798;28;20047;-70
2022/10/11 04:58:40;;;;;;;5.40;0.75;;;5.20;99.90;;;;;;5082488;28;20035;-70
2022/10/11 05:01:09;;;;;;;9.73;1.08;;;5.10;99.90;;;;;;5094093;28;20039;-70
2022/10/11 05:03:35;;;;;;;13.80;1.40;;;5.10;99.90;;;;;;5093964;28;20036;-70
2022/10/11 05:06:01;;;;;;;7.00;0.90;;;5.10;99.90;;;;;;5072798;28;20078;-70
2022/10/11 05:08:27;;;;;;;7.97;1.30;;;5.00;99.90;;;;;;5097949;28;20054;-69
2022/10/11 05:11:06;;;;;;;6.22;0.80;;;5.00;99.90;;;;;;5093038;28;20373;-69
2022/10/11 05:13:34;;;;;;;9.85;0.93;;;5.00;99.90;;;;;;5102491;28;20517;-70
2022/10/11 05:16:01;;;;;;;10.25;1.50;;;5.00;99.90;;;;;;5098755;28;20047;-70
2022/10/11 05:18:27;;;;;;;8.55;2.13;;;5.00;99.90;;;;;;5100207;28;20349;-69
2022/10/11 05:21:14;;;;;;;10.15;1.20;;;5.00;99.90;;;;;;5074231;28;20109;-69
2022/10/11 05:23:40;;;;;;;12.52;2.15;;;5.00;99.90;;;;;;5091911;28;20108;-69
2022/10/11 05:26:06;;;;;;;11.07;1.23;;;5.00;99.90;;;;;;5078362;28;20040;-70
2022/10/11 05:28:32;;;;;;;10.17;1.00;;;5.00;99.90;;;;;;5076431;28;20551;-70
2022/10/11 05:30:57;;;;;;;8.37;1.43;;;5.10;99.90;;;;;;5092745;28;20047;-70
2022/10/11 05:33:23;;;;;;;10.17;1.17;;;5.10;99.90;;;;;;5080748;28;20097;-69
2022/10/11 05:35:49;;;;;;;12.07;1.23;;;5.20;99.90;;;;;;5083378;28;20039;-70
2022/10/11 05:38:15;;;;;;;13.13;2.00;;;5.20;99.90;;;;;;5101804;28;20031;-70
2022/10/11 05:40:41;;;;;;;6.13;1.00;;;5.20;99.90;;;;;;5059648;28;20040;-70
2022/10/11 05:43:07;;;;;;;8.93;1.70;;;5.20;99.90;;;;;;5092500;28;20605;-70
2022/10/11 05:45:41;;;;;;;9.60;0.73;;;5.10;99.90;;;;;;5075171;28;20143;-70
2022/10/11 05:48:07;;;;;;;10.10;1.42;;;5.10;99.90;;;;;;5097199;28;20396;-70
2022/10/11 05:50:33;;;;;;;7.57;1.15;;;5.00;99.90;;;;;;5095592;28;20127;-70
2022/10/11 05:52:59;;;;;;;6.68;1.00;;;5.00;99.90;;;;;;5092229;28;20452;-71
2022/10/11 05:55:25;;;;;;;5.45;1.10;;;5.00;99.90;;;;;;5076941;28;20504;-71
2022/10/11 05:57:55;;;;;;;14.67;1.53;;;4.90;99.90;;;;;;5074244;28;20075;-71
2022/10/11 06:00:22;;;;;;;6.05;1.02;;;4.90;99.90;;;;;;5095822;28;20666;-71
2022/10/11 06:02:47;;;;;;;11.43;2.42;;;4.90;99.90;;;;;;5097962;28;20040;-71
2022/10/11 06:05:13;;;;;;;10.63;1.10;;;4.90;99.90;;;;;;5094651;28;20028;-70
2022/10/11 06:07:39;;;;;;;5.93;1.00;;;4.90;99.90;;;;;;5093368;28;20123;-71
2022/10/11 06:10:05;;;;;;;10.70;1.23;;;4.80;99.90;;;;;;5078385;28;20063;-71
2022/10/11 06:12:31;;;;;;;14.82;1.70;;;4.90;99.90;;;;;;5079290;28;20054;-71
2022/10/11 06:14:57;;;;;;;8.80;1.52;;;4.90;99.90;;;;;;5079264;28;20519;-71
2022/10/11 06:17:23;;;;;;;8.77;1.30;;;5.00;99.90;;;;;;5095233;28;20132;-70
2022/10/11 06:19:50;;;;;;;11.57;1.23;;;5.00;99.90;;;;;;5092181;28;20285;-70
2022/10/11 06:22:16;;;;;;;10.18;1.10;;;5.10;99.90;;;;;;5074802;28;20139;-71
2022/10/11 06:24:42;;;;;;;14.05;1.30;;;5.20;99.90;;;;;;5072418;28;20036;-71
2022/10/11 06:27:08;;;;;;;11.03;1.60;;;5.30;99.90;;;;;;5079128;28;20533;-71
2022/10/11 06:29:34;;;;;;;12.85;1.40;;;5.40;99.90;;;;;;5072979;28;20040;-71
2022/10/11 06:32:00;;;;;;;11.70;2.63;;;5.50;99.90;;;;;;5050834;28;20058;-71
2022/10/11 06:34:26;;;;;;;8.70;1.23;;;5.70;99.90;;;;;;5068641;28;20411;-71
2022/10/11 06:36:52;;;;;;;10.57;1.40;;;5.80;99.90;;;;;;5091656;28;20063;-71
2022/10/11 06:39:18;;;;;;;11.43;1.97;;;6.00;99.90;;;;;;5088364;28;20044;-71
2022/10/11 06:41:43;;;;;;;10.23;1.30;;;6.10;99.90;;;;;;5080712;28;20040;-71
2022/10/11 06:44:13;;;;;;;14.93;1.53;;;6.20;99.90;;;;;;5081408;28;20134;-71
2022/10/11 06:46:39;;;;;;;10.88;2.15;;;6.40;99.90;;;;;;5086968;28;20403;-71
2022/10/11 06:49:05;;;;;;;13.30;1.63;;;6.50;99.90;;;;;;5092729;28;20044;-71
2022/10/11 06:51:30;;;;;;;10.15;1.50;;;6.60;99.90;;;;;;5085550;28;20650;-71
2022/10/11 06:53:58;;;;;;;14.57;1.50;;;6.70;99.90;;;;;;5063013;28;20044;-71
2022/10/11 06:56:25;;;;;;;10.93;2.17;;;6.80;99.90;;;;;;5098603;28;20046;-71
2022/10/11 06:58:53;;;;;;;11.20;1.20;;;6.90;99.90;;;;;;5093841;28;20488;-71
2022/10/11 07:01:20;;;;;;;8.18;1.35;;;7.00;99.90;;;;;;5075773;28;20126;-71
2022/10/11 07:03:47;;;;;;;9.48;1.15;;;7.10;99.90;;;;;;5094612;28;20048;-71
2022/10/11 07:06:18;;;;;;;11.80;1.77;;;7.20;99.90;;;;;;5092746;28;20317;-71
2022/10/11 07:08:44;;;;;;;13.75;1.80;;;7.30;99.90;;;;;;5093414;28;20492;-71
2022/10/11 07:11:18;;;;;;;8.07;1.33;;;7.40;99.90;;;;;;5087985;28;20208;-71
2022/10/11 07:13:49;;;;;;;10.82;2.25;;;7.50;99.90;;;;;;5077831;28;20126;-71
2022/10/11 07:16:16;;;;;;;8.75;1.50;;;7.70;99.90;;;;;;5095166;28;20047;-71
2022/10/11 07:18:42;;;;;;;11.75;1.75;;;7.80;99.90;;;;;;5102310;28;20543;-71
2022/10/11 07:21:10;;;;;;;6.80;1.10;;;7.90;99.90;;;;;;5079316;28;20122;-71
2022/10/11 07:23:37;;;;;;;8.82;1.67;;;8.10;99.90;;;;;;5094492;28;20039;-71
2022/10/11 07:26:03;;;;;;;10.75;1.45;;;8.20;99.90;;;;;;5098406;28;20478;-71
2022/10/11 07:28:29;;;;;;;12.18;1.60;;;8.40;99.90;;;;;;5086938;28;20039;-71
2022/10/11 07:30:56;;;;;;;10.73;1.50;;;8.50;99.90;;;;;;5099547;28;20040;-72
2022/10/11 07:33:22;;;;;;;11.32;1.73;;;8.70;99.90;;;;;;5074474;28;20519;-72
2022/10/11 07:35:48;;;;;;;12.20;1.80;;;8.90;99.90;;;;;;5106002;28;20328;-72
2022/10/11 07:38:14;;;;;;;11.60;1.58;;;9.10;99.90;;;;;;5069526;28;20079;-73
2022/10/11 07:40:42;;;;;;;7.85;1.95;;;9.40;99.90;;;;;;5073323;28;20086;-71
2022/10/11 07:43:09;;;;;;;14.73;1.52;;;9.60;99.90;;;;;;5064660;28;20404;-71
2022/10/11 07:45:39;;;;;;;8.20;1.10;;;9.90;99.90;;;;;;5076903;28;20040;-73
2022/10/11 07:48:05;;;;;;;10.52;1.38;;;10.10;99.90;;;;;;5075571;28;20040;-72
2022/10/11 07:50:32;;;;;;;11.82;1.17;;;10.30;99.90;;;;;;5092812;28;20039;-72
2022/10/11 07:52:58;;;;;;;15.30;1.67;;;10.50;99.90;;;;;;5092085;28;20047;-72
2022/10/11 07:55:26;;;;;;;10.83;1.30;;;10.70;99.90;;;;;;5102272;28;20039;-72
2022/10/11 07:57:53;;;;;;;10.03;1.67;;;10.80;99.90;;;;;;5073547;28;20051;-72
2022/10/11 08:00:19;;;;;;;7.43;1.27;;;10.90;99.90;;;;;;5058708;28;20415;-72
2022/10/11 08:02:45;;;;;;;8.73;1.20;;;11.00;99.90;;;;;;5094551;28;20345;-72
2022/10/11 08:05:10;;;;;;;9.27;1.30;;;11.00;99.90;;;;;;5092911;28;20804;-72
2022/10/11 08:07:36;;;;;;;11.00;1.50;;;11.00;99.90;;;;;;5054943;28;20096;-71
2022/10/11 08:10:04;;;;;;;10.20;1.80;;;11.00;99.90;;;;;;5063861;28;20126;-72
2022/10/11 08:12:30;;;;;;;7.93;0.87;;;10.90;99.90;;;;;;5069952;28;20043;-72
2022/10/11 08:14:55;;;;;;;7.77;1.53;;;10.80;99.90;;;;;;5066309;28;20293;-72
2022/10/11 08:17:21;;;;;;;11.40;1.20;;;10.70;99.90;;;;;;5094148;28;20052;-72
2022/10/11 08:19:47;;;;;;;14.13;1.40;;;10.70;99.90;;;;;;5066515;28;20048;-72
2022/10/11 08:22:13;;;;;;;8.10;1.37;;;10.60;99.90;;;;;;5091558;28;20195;-71
2022/10/11 08:24:39;;;;;;;11.07;2.17;;;10.50;99.90;;;;;;5078507;28;20077;-72
2022/10/11 08:27:05;;;;;;;12.40;1.63;;;10.50;99.90;;;;;;5075499;28;20324;-72
2022/10/11 08:29:31;;;;;;;11.10;1.70;;;10.60;99.90;;;;;;5088968;28;20043;-72
2022/10/11 08:31:57;;;;;;;7.90;1.40;;;10.70;99.90;;;;;;5069613;28;20106;-70
2022/10/11 08:34:29;;;;;;;9.40;1.47;;;10.80;99.90;;;;;;5050246;28;20457;-72
2022/10/11 08:36:54;;;;;;;9.47;1.90;;;10.90;99.90;;;;;;5092160;28;20278;-71
2022/10/11 08:39:20;;;;;;;11.90;2.07;;;11.10;99.90;;;;;;5092326;28;20043;-71
2022/10/11 08:42:06;;;;;;;10.90;1.60;;;11.20;99.90;;;;;;5074088;28;20054;-72
2022/10/11 08:44:42;;;;;;;9.33;1.47;;;11.30;99.90;;;;;;5092124;28;20072;-71
2022/10/11 08:47:16;;;;;;;11.77;1.13;;;11.50;99.90;;;;;;5079368;28;20838;-71
2022/10/11 08:49:43;;;;;;;10.50;2.10;;;11.60;99.90;;;;;;5072050;28;20280;-72
2022/10/11 08:52:35;;;;;;;9.20;1.60;;;11.70;99.90;;;;;;5084147;28;20819;-71
2022/10/11 08:55:15;;;;;;;12.57;1.40;;;11.80;99.60;;;;;;5072899;28;20289;-72
2022/10/11 08:57:44;;;;;;;16.30;2.23;;;11.90;98.30;;;;;;5093850;28;20773;-72
2022/10/11 09:00:15;;;;;;;19.37;2.93;;;12.10;97.80;;;;;;5075557;28;20367;-71
2022/10/11 09:03:22;;;;;;;9.33;1.20;;;12.20;95.80;;;;;;5094889;28;20450;-72
2022/10/11 09:06:17;;;;;;;10.60;1.37;;;12.30;93.20;;;;;;5000009;28;20323;-72
2022/10/11 09:09:13;;;;;;;5.73;1.20;;;12.50;93.10;;;;;;5090886;28;20618;-70
2022/10/11 09:12:09;;;;;;;7.53;1.30;;;12.60;91.50;;;;;;5076163;28;20792;-72
2022/10/11 09:15:00;;;;;;;11.98;1.92;;;12.70;89.70;;;;;;5082067;28;20372;-71
2022/10/11 09:17:55;;;;;;;9.63;2.00;;;12.90;90.10;;;;;;5094203;28;20036;-72
2022/10/11 09:20:39;;;;;;;5.13;1.10;;;13.10;89.70;;;;;;5053840;28;20289;-72
2022/10/11 09:23:25;;;;;;;10.20;1.33;;;13.20;88.40;;;;;;5081596;28;20305;-71
2022/10/11 09:26:18;;;;;;;8.85;1.13;;;13.20;87.30;;;;;;5089554;28;20640;-71
2022/10/11 09:29:14;;;;;;;6.23;1.20;;;13.30;83.10;;;;;;5087490;28;20054;-71
2022/10/11 09:31:45;;;;;;;11.13;1.63;;;13.40;84.20;;;;;;5102070;28;20311;-72
2022/10/11 09:34:14;;;;;;;6.77;1.20;;;13.50;83.20;;;;;;5099563;28;20342;-71
2022/10/11 09:37:18;;;;;;;9.23;1.43;;;13.50;82.70;;;;;;5097764;28;20277;-71
2022/10/11 09:39:52;;;;;;;8.40;1.87;;;13.60;81.90;;;;;;5091264;28;20277;-72
2022/10/11 09:42:17;;;;;;;8.63;1.27;;;13.70;81.20;;;;;;5104541;28;20366;-72
2022/10/11 09:44:49;;;;;;;8.30;1.20;;;13.70;80.90;;;;;;5080207;28;20282;-72
2022/10/11 09:47:27;;;;;;;8.80;1.33;;;13.80;81.50;;;;;;5071501;28;20036;-71
2022/10/11 09:50:05;;;;;;;7.63;1.40;;;13.80;81.60;;;;;;5093582;28;20289;-71
2022/10/11 09:52:33;;;;;;;8.33;1.00;;;14.00;82.90;;;;;;5096550;28;20380;-70
2022/10/11 09:55:00;;;;;;;6.57;0.83;;;14.00;80.60;;;;;;5080075;28;20299;-70
2022/10/11 09:57:32;;;;;;;11.80;2.30;;;14.00;78.40;;;;;;5094599;27;20289;-70
2022/10/11 09:59:59;;;;;;;7.30;1.10;;;14.10;78.20;;;;;;5096749;28;20377;-70
2022/10/11 10:02:27;;;;;;;9.13;1.40;;;14.10;79.80;;;;;;5105752;28;20308;-70
2022/10/11 10:05:02;;;;;;;7.30;1.23;;;14.20;79.40;;;;;;5080750;28;20286;-70
2022/10/11 10:07:30;;;;;;;10.45;0.98;;;14.10;78.00;;;;;;5091346;27;20297;-70
2022/10/11 10:09:57;;;;;;;9.00;0.90;;;14.00;76.10;;;;;;5094810;28;20104;-70
2022/10/11 10:12:27;;;;;;;7.03;0.90;;;14.00;77.00;;;;;;5106153;28;20614;-70
2022/10/11 10:15:06;;;;;;;6.70;1.00;;;14.10;77.00;;;;;;5096726;28;20393;-70
2022/10/11 10:17:32;;;;;;;10.47;1.40;;;14.10;73.40;;;;;;5100463;28;20269;-70
2022/10/11 10:19:59;;;;;;;9.37;2.07;;;14.10;75.70;;;;;;5101546;28;20278;-71
2022/10/11 10:22:33;;;;;;;8.13;1.33;;;14.10;76.40;;;;;;5077178;28;20396;-71
2022/10/11 10:25:01;;;;;;;10.02;0.90;;;14.00;76.30;;;;;;5075819;28;20670;-70
2022/10/11 10:27:29;;;;;;;7.87;0.90;;;14.00;76.90;;;;;;5099523;28;20035;-70
2022/10/11 10:30:00;;;;;;;7.37;0.70;;;14.20;76.20;;;;;;5083516;27;20372;-70
2022/10/11 10:32:33;;;;;;;6.23;0.73;;;14.30;74.80;;;;;;5071796;28;21027;-71
2022/10/11 10:35:23;;;;;;;9.23;1.50;;;14.40;73.40;;;;;;5096546;28;20439;-70
2022/10/11 10:38:14;;;;;;;7.50;1.07;;;14.60;73.00;;;;;;5079436;28;20286;-70
2022/10/11 10:41:01;;;;;;;7.27;1.10;;;14.80;72.70;;;;;;5070779;28;20316;-70
2022/10/11 10:43:32;;;;;;;7.00;0.93;;;14.80;72.40;;;;;;5092548;28;20956;-71
2022/10/11 10:46:10;;;;;;;7.77;0.90;;;15.00;73.50;;;;;;5074742;28;20281;-70
2022/10/11 10:48:56;;;;;;;7.53;0.83;;;15.20;72.60;;;;;;5076983;28;20265;-70
2022/10/11 10:51:42;;;;;;;10.02;1.48;;;15.40;70.40;;;;;;5097652;28;20791;-70
2022/10/11 10:54:27;;;;;;;7.57;1.37;;;15.40;68.20;;;;;;5079114;28;20060;-71
2022/10/11 10:57:10;;;;;;;7.93;0.95;;;15.30;68.90;;;;;;5097714;28;20328;-71
2022/10/11 10:59:42;;;;;;;9.07;1.50;;;15.20;69.40;;;;;;5095771;28;20495;-71
2022/10/11 11:02:29;;;;;;;7.47;0.60;;;15.10;70.20;;;;;;5102720;28;20357;-71
2022/10/11 11:05:36;;;;;;;12.50;1.50;;;14.90;70.50;;;;;;5053334;28;20763;-71
2022/10/11 11:08:14;;;;;;;7.80;0.90;;;15.10;69.60;;;;;;5036719;28;20319;-69
2022/10/11 11:10:53;;;;;;;7.50;0.93;;;15.00;69.50;;;;;;5037081;28;20779;-69
2022/10/11 11:13:31;;;;;;;12.40;0.97;;;14.90;70.50;;;;;;5057525;28;20281;-69
2022/10/11 11:16:07;;;;;;;9.17;0.83;;;15.00;71.20;;;;;;5040722;28;20274;-69
2022/10/11 11:19:10;;;;;;;7.57;0.80;;;15.20;70.40;;;;;;5057137;28;20369;-69
2022/10/11 11:22:00;;;;;;;6.17;1.07;;;15.50;69.80;;;;;;5036297;28;20299;-69
2022/10/11 11:24:45;;;;;;;5.40;0.97;;;15.70;68.60;;;;;;5036797;28;20279;-69
2022/10/11 11:27:38;;;;;;;10.50;1.27;;;15.80;68.60;;;;;;5044017;28;20325;-68
2022/10/11 11:30:09;;;;;;;10.20;1.20;;;15.60;67.50;;;;;;5051083;28;20728;-69
2022/10/11 11:33:03;;;;;;;5.93;0.50;;;15.40;69.10;;;;;;5070504;28;20655;-68
2022/10/11 11:35:52;;;;;;;6.67;1.03;;;15.20;69.40;;;;;;5032625;28;20290;-68
2022/10/11 11:38:27;;;;;;;7.67;0.77;;;15.00;70.20;;;;;;5047088;28;20274;-68
2022/10/11 11:41:04;;;;;;;8.13;0.85;;;14.80;71.70;;;;;;5060869;28;20436;-69
2022/10/11 11:43:38;;;;;;;6.50;0.73;;;14.80;72.20;;;;;;5050138;28;20052;-69
2022/10/11 11:46:31;;;;;;;9.40;0.90;;;14.90;72.40;;;;;;5041611;28;20821;-69
2022/10/11 11:49:01;;;;;;;8.83;1.10;;;15.10;70.60;;;;;;5037021;28;20302;-68
2022/10/11 11:51:34;;;;;;;7.93;1.23;;;15.30;69.50;;;;;;5058539;28;20298;-68
2022/10/11 11:54:38;;;;;;;5.20;0.73;;;15.30;69.30;;;;;;5045368;28;20710;-68
2022/10/11 11:57:31;;;;;;;6.90;1.23;;;15.50;68.50;;;;;;5065447;28;20296;-68
2022/10/11 12:00:18;;;;;;;9.20;0.90;;;15.50;67.70;;;;;;5051086;28;20409;-68
2022/10/11 12:02:52;;;;;;;6.63;1.23;;;15.40;67.70;;;;;;5029669;28;20644;-69
2022/10/11 12:05:25;;;;;;;5.27;0.80;;;15.50;68.70;;;;;;5043616;28;20280;-68
2022/10/11 12:07:58;;;;;;;9.67;0.80;;;15.60;68.10;;;;;;5052544;28;20307;-69
2022/10/11 12:10:50;;;;;;;7.50;1.00;;;15.70;68.40;;;;;;5031736;28;20299;-69
2022/10/11 12:13:37;;;;;;;6.80;1.00;;;15.80;67.50;;;;;;5040212;28;20283;-69
2022/10/11 12:16:03;;;;;;;6.67;1.00;;;15.90;67.70;;;;;;5034305;28;20306;-68
2022/10/11 12:18:30;;;;;;;4.73;0.90;;;16.00;68.00;;;;;;5037051;28;20271;-68
2022/10/11 12:21:15;;;;;;;5.50;0.60;;;16.10;67.00;;;;;;5048218;28;20045;-68
2022/10/11 12:23:45;;;;;;;4.90;0.80;;;16.20;67.20;;;;;;5050714;28;20357;-68
2022/10/11 12:26:26;;;;;;;8.43;1.77;;;16.30;66.60;;;;;;5053501;28;20324;-68
2022/10/11 12:29:23;;;;;;;9.07;0.80;;;16.40;64.70;;;;;;5030775;28;20278;-68
2022/10/11 12:31:58;;;;;;;6.33;0.63;;;16.40;65.10;;;;;;5041467;28;20699;-68
2022/10/11 12:34:44;;;;;;;7.87;0.90;;;16.40;63.70;;;;;;5039361;28;20314;-68
2022/10/11 12:37:19;;;;;;;5.40;0.90;;;16.30;64.50;;;;;;5050351;28;20667;-68
2022/10/11 12:39:56;;;;;;;7.68;1.23;;;16.20;65.30;;;;;;5031204;28;20282;-68
2022/10/11 12:42:33;;;;;;;9.23;1.43;;;15.90;65.40;;;;;;5051975;28;20039;-68
2022/10/11 12:45:29;;;;;;;7.77;1.00;;;15.60;66.20;;;;;;5032432;28;20648;-68
2022/10/11 12:47:54;;;;;;;;;;;15.40;67.20;;;;;;5050499;28;20278;-68
2022/10/11 12:50:45;;;;;;;8.37;1.07;;;15.10;68.00;;;;;;5058783;28;19920;-68
2022/10/11 12:53:47;;;;;;;4.13;0.47;;;15.00;68.70;;;;;;5053743;28;20076;-68
2022/10/11 12:56:16;;;;;;;7.60;1.10;;;14.90;69.20;;;;;;5046012;28;20290;-68
2022/10/11 12:58:47;;;;;;;9.13;1.00;;;14.70;69.20;;;;;;5050224;28;20786;-68
2022/10/11 13:01:22;;;;;;;6.07;0.77;;;14.60;70.20;;;;;;5059315;28;20290;-68
2022/10/11 13:04:05;;;;;;;7.07;1.00;;;14.50;70.40;;;;;;5037641;28;20302;-68
2022/10/11 13:07:01;;;;;;;6.40;1.00;;;14.40;70.80;;;;;;5042811;28;20079;-68
2022/10/11 13:09:29;;;;;;;6.17;0.57;;;14.30;70.70;;;;;;5039482;28;20285;-68
2022/10/11 13:12:05;;;;;;;4.33;0.77;;;14.10;70.40;;;;;;5052955;28;20286;-69
2022/10/11 13:14:37;;;;;;;6.57;0.93;;;14.10;71.40;;;;;;5058813;28;20737;-69